sensor_id;sensor_type;location;lat;lon;timestamp;temperature;humidity
6244;DHT22;3155;49.940;8.450;2023-05-28T00:01:09;12.60;1.00
6244;DHT22;3155;49.940;8.450;2023-05-28T00:03:39;12.50;1.00
6244;DHT22;3155;49.940;8.450;2023-05-28T00:06:08;12.50;1.00
6244;DHT22;3155;49.940;8.450;2023-05-28T00:08:35;12.40;1.00
6244;DHT22;3155;49.940;8.450;2023-05-28T00:11:01;12.40;1.00
6244;DHT22;3155;49.940;8.450;2023-05-28T00:13:33;12.40;1.00
6244;DHT22;3155;49.940;8.450;2023-05-28T00:16:06;12.40;1.00
6244;DHT22;3155;49.940;8.450;2023-05-28T00:18:33;12.40;1.00
6244;DHT22;3155;49.940;8.450;2023-05-28T00:20:59;12.40;1.00
6244;DHT22;3155;49.940;8.450;2023-05-28T00:23:27;12.30;1.00
6244;DHT22;3155;49.940;8.450;2023-05-28T00:25:54;12.20;1.00
6244;DHT22;3155;49.940;8.450;2023-05-28T00:28:45;12.20;1.00
6244;DHT22;3155;49.940;8.450;2023-05-28T00:31:12;12.10;1.00
6244;DHT22;3155;49.940;8.450;2023-05-28T00:33:42;12.10;1.00
6244;DHT22;3155;49.940;8.450;2023-05-28T00:36:11;12.20;1.00
6244;DHT22;3155;49.940;8.450;2023-05-28T00:38:38;12.20;1.00
6244;DHT22;3155;49.940;8.450;2023-05-28T00:41:05;12.20;1.00
6244;DHT22;3155;49.940;8.450;2023-05-28T00:43:35;12.10;1.00
6244;DHT22;3155;49.940;8.450;2023-05-28T00:46:03;12.10;1.00
6244;DHT22;3155;49.940;8.450;2023-05-28T00:48:32;11.90;1.00
6244;DHT22;3155;49.940;8.450;2023-05-28T00:50:59;11.90;1.00
6244;DHT22;3155;49.940;8.450;2023-05-28T00:53:26;11.90;1.00
6244;DHT22;3155;49.940;8.450;2023-05-28T00:55:53;11.90;1.00
6244;DHT22;3155;49.940;8.450;2023-05-28T00:58:21;11.90;1.00
6244;DHT22;3155;49.940;8.450;2023-05-28T01:00:48;11.90;1.00
6244;DHT22;3155;49.940;8.450;2023-05-28T01:03:15;11.90;1.00
6244;DHT22;3155;49.940;8.450;2023-05-28T01:05:45;11.90;1.00
6244;DHT22;3155;49.940;8.450;2023-05-28T01:08:11;12.00;1.00
6244;DHT22;3155;49.940;8.450;2023-05-28T01:10:38;12.00;1.00
6244;DHT22;3155;49.940;8.450;2023-05-28T01:13:07;12.00;1.00
6244;DHT22;3155;49.940;8.450;2023-05-28T01:15:34;11.90;1.00
6244;DHT22;3155;49.940;8.450;2023-05-28T01:18:02;11.90;1.00
6244;DHT22;3155;49.940;8.450;2023-05-28T01:20:30;11.90;1.00
6244;DHT22;3155;49.940;8.450;2023-05-28T01:23:13;11.90;1.00
6244;DHT22;3155;49.940;8.450;2023-05-28T01:25:43;11.80;1.00
6244;DHT22;3155;49.940;8.450;2023-05-28T01:28:14;11.80;1.00
6244;DHT22;3155;49.940;8.450;2023-05-28T01:30:41;11.70;1.00
6244;DHT22;3155;49.940;8.450;2023-05-28T01:33:10;11.70;1.00
6244;DHT22;3155;49.940;8.450;2023-05-28T01:35:42;11.60;1.00
6244;DHT22;3155;49.940;8.450;2023-05-28T01:38:10;11.60;1.00
6244;DHT22;3155;49.940;8.450;2023-05-28T01:40:44;11.60;1.00
6244;DHT22;3155;49.940;8.450;2023-05-28T01:43:11;11.40;1.00
6244;DHT22;3155;49.940;8.450;2023-05-28T01:45:39;11.30;1.00
6244;DHT22;3155;49.940;8.450;2023-05-28T01:48:06;11.10;40.70
6244;DHT22;3155;49.940;8.450;2023-05-28T01:50:33;10.90;99.90
6244;DHT22;3155;49.940;8.450;2023-05-28T01:53:00;10.80;99.90
6244;DHT22;3155;49.940;8.450;2023-05-28T01:55:27;10.70;1.00
6244;DHT22;3155;49.940;8.450;2023-05-28T01:57:54;10.60;1.00
6244;DHT22;3155;49.940;8.450;2023-05-28T02:00:22;10.50;13.20
6244;DHT22;3155;49.940;8.450;2023-05-28T02:02:49;10.50;99.90
6244;DHT22;3155;49.940;8.450;2023-05-28T02:05:16;10.60;99.90
6244;DHT22;3155;49.940;8.450;2023-05-28T02:07:43;10.60;99.90
6244;DHT22;3155;49.940;8.450;2023-05-28T02:10:10;10.60;99.90
6244;DHT22;3155;49.940;8.450;2023-05-28T02:12:37;10.60;99.90
6244;DHT22;3155;49.940;8.450;2023-05-28T02:15:04;10.60;99.90
6244;DHT22;3155;49.940;8.450;2023-05-28T02:17:37;10.50;99.90
6244;DHT22;3155;49.940;8.450;2023-05-28T02:20:04;10.60;99.90
6244;DHT22;3155;49.940;8.450;2023-05-28T02:22:31;10.50;99.90
6244;DHT22;3155;49.940;8.450;2023-05-28T02:25:00;10.40;99.90
6244;DHT22;3155;49.940;8.450;2023-05-28T02:27:27;10.30;1.00
6244;DHT22;3155;49.940;8.450;2023-05-28T02:29:57;10.30;1.00
6244;DHT22;3155;49.940;8.450;2023-05-28T02:32:23;10.20;99.90
6244;DHT22;3155;49.940;8.450;2023-05-28T02:34:53;10.10;1.00
6244;DHT22;3155;49.940;8.450;2023-05-28T02:37:21;10.10;1.00
6244;DHT22;3155;49.940;8.450;2023-05-28T02:39:50;10.00;99.90
6244;DHT22;3155;49.940;8.450;2023-05-28T02:42:17;9.90;99.90
6244;DHT22;3155;49.940;8.450;2023-05-28T02:44:44;9.90;1.00
6244;DHT22;3155;49.940;8.450;2023-05-28T02:47:14;9.90;1.00
6244;DHT22;3155;49.940;8.450;2023-05-28T02:49:40;9.90;1.00
6244;DHT22;3155;49.940;8.450;2023-05-28T02:52:07;9.90;1.00
6244;DHT22;3155;49.940;8.450;2023-05-28T02:54:34;10.00;1.00
6244;DHT22;3155;49.940;8.450;2023-05-28T02:57:03;10.10;99.90
6244;DHT22;3155;49.940;8.450;2023-05-28T02:59:30;10.10;69.10
6244;DHT22;3155;49.940;8.450;2023-05-28T03:01:57;10.20;1.00
6244;DHT22;3155;49.940;8.450;2023-05-28T03:04:23;10.10;99.90
6244;DHT22;3155;49.940;8.450;2023-05-28T03:06:50;10.10;1.00
6244;DHT22;3155;49.940;8.450;2023-05-28T03:09:17;10.00;1.00
6244;DHT22;3155;49.940;8.450;2023-05-28T03:11:44;9.90;1.00
6244;DHT22;3155;49.940;8.450;2023-05-28T03:14:10;9.90;7.60
6244;DHT22;3155;49.940;8.450;2023-05-28T03:16:37;9.80;99.90
6244;DHT22;3155;49.940;8.450;2023-05-28T03:19:04;9.80;1.00
6244;DHT22;3155;49.940;8.450;2023-05-28T03:21:31;9.70;1.00
6244;DHT22;3155;49.940;8.450;2023-05-28T03:23:58;9.60;99.90
6244;DHT22;3155;49.940;8.450;2023-05-28T03:26:24;9.50;99.90
6244;DHT22;3155;49.940;8.450;2023-05-28T03:28:51;9.50;99.90
6244;DHT22;3155;49.940;8.450;2023-05-28T03:31:19;9.50;99.90
6244;DHT22;3155;49.940;8.450;2023-05-28T03:33:46;9.50;99.90
6244;DHT22;3155;49.940;8.450;2023-05-28T03:36:13;9.40;99.90
6244;DHT22;3155;49.940;8.450;2023-05-28T03:38:40;9.40;1.00
6244;DHT22;3155;49.940;8.450;2023-05-28T03:41:07;9.40;1.00
6244;DHT22;3155;49.940;8.450;2023-05-28T03:43:34;9.40;7.80
6244;DHT22;3155;49.940;8.450;2023-05-28T03:46:01;9.40;2.50
6244;DHT22;3155;49.940;8.450;2023-05-28T03:48:28;9.40;1.00
6244;DHT22;3155;49.940;8.450;2023-05-28T03:50:54;9.50;90.00
6244;DHT22;3155;49.940;8.450;2023-05-28T03:53:22;9.50;19.60
6244;DHT22;3155;49.940;8.450;2023-05-28T03:55:49;9.60;1.00
6244;DHT22;3155;49.940;8.450;2023-05-28T03:58:18;9.70;1.00
6244;DHT22;3155;49.940;8.450;2023-05-28T04:00:45;9.70;99.90
6244;DHT22;3155;49.940;8.450;2023-05-28T04:03:12;9.80;99.90
6244;DHT22;3155;49.940;8.450;2023-05-28T04:05:42;9.90;1.00
6244;DHT22;3155;49.940;8.450;2023-05-28T04:08:08;10.00;1.00
6244;DHT22;3155;49.940;8.450;2023-05-28T04:10:35;10.00;99.90
6244;DHT22;3155;49.940;8.450;2023-05-28T04:13:02;10.00;99.90
6244;DHT22;3155;49.940;8.450;2023-05-28T04:15:29;10.10;1.00
6244;DHT22;3155;49.940;8.450;2023-05-28T04:17:56;10.20;99.90
6244;DHT22;3155;49.940;8.450;2023-05-28T04:20:23;10.20;99.90
6244;DHT22;3155;49.940;8.450;2023-05-28T04:22:49;10.30;1.00
6244;DHT22;3155;49.940;8.450;2023-05-28T04:25:17;10.40;1.00
6244;DHT22;3155;49.940;8.450;2023-05-28T04:27:47;10.50;99.90
6244;DHT22;3155;49.940;8.450;2023-05-28T04:30:14;10.60;1.00
6244;DHT22;3155;49.940;8.450;2023-05-28T04:32:41;10.70;1.00
6244;DHT22;3155;49.940;8.450;2023-05-28T04:35:08;10.80;99.90
6244;DHT22;3155;49.940;8.450;2023-05-28T04:37:38;10.90;99.90
6244;DHT22;3155;49.940;8.450;2023-05-28T04:40:07;11.10;99.90
6244;DHT22;3155;49.940;8.450;2023-05-28T04:42:34;11.60;1.00
6244;DHT22;3155;49.940;8.450;2023-05-28T04:45:00;12.20;99.90
6244;DHT22;3155;49.940;8.450;2023-05-28T04:47:27;12.90;1.00
6244;DHT22;3155;49.940;8.450;2023-05-28T04:49:54;13.40;99.90
6244;DHT22;3155;49.940;8.450;2023-05-28T04:52:24;14.00;99.90
6244;DHT22;3155;49.940;8.450;2023-05-28T04:54:51;14.40;99.90
6244;DHT22;3155;49.940;8.450;2023-05-28T04:57:18;14.80;99.90
6244;DHT22;3155;49.940;8.450;2023-05-28T04:59:46;15.30;99.90
6244;DHT22;3155;49.940;8.450;2023-05-28T05:02:14;15.40;99.90
6244;DHT22;3155;49.940;8.450;2023-05-28T05:04:43;15.70;99.90
6244;DHT22;3155;49.940;8.450;2023-05-28T05:07:14;16.00;99.90
6244;DHT22;3155;49.940;8.450;2023-05-28T05:09:41;16.30;99.90
6244;DHT22;3155;49.940;8.450;2023-05-28T05:12:08;16.70;99.90
6244;DHT22;3155;49.940;8.450;2023-05-28T05:14:35;17.30;99.90
6244;DHT22;3155;49.940;8.450;2023-05-28T05:17:04;17.70;99.90
6244;DHT22;3155;49.940;8.450;2023-05-28T05:19:35;17.80;99.90
6244;DHT22;3155;49.940;8.450;2023-05-28T05:22:02;17.80;99.90
6244;DHT22;3155;49.940;8.450;2023-05-28T05:24:31;17.70;99.90
6244;DHT22;3155;49.940;8.450;2023-05-28T05:26:58;17.90;99.90
6244;DHT22;3155;49.940;8.450;2023-05-28T05:29:25;18.00;99.90
6244;DHT22;3155;49.940;8.450;2023-05-28T05:31:51;18.10;99.90
6244;DHT22;3155;49.940;8.450;2023-05-28T05:34:18;18.20;99.90
6244;DHT22;3155;49.940;8.450;2023-05-28T05:36:45;18.50;99.90
6244;DHT22;3155;49.940;8.450;2023-05-28T05:39:12;18.80;99.90
6244;DHT22;3155;49.940;8.450;2023-05-28T05:41:39;19.00;99.90
6244;DHT22;3155;49.940;8.450;2023-05-28T05:44:06;18.90;99.90
6244;DHT22;3155;49.940;8.450;2023-05-28T05:46:33;19.10;99.90
6244;DHT22;3155;49.940;8.450;2023-05-28T05:49:00;19.40;99.90
6244;DHT22;3155;49.940;8.450;2023-05-28T05:51:27;19.50;99.90
6244;DHT22;3155;49.940;8.450;2023-05-28T05:53:54;19.80;99.90
6244;DHT22;3155;49.940;8.450;2023-05-28T05:56:21;19.80;99.90
6244;DHT22;3155;49.940;8.450;2023-05-28T05:58:47;20.00;99.90
6244;DHT22;3155;49.940;8.450;2023-05-28T06:01:17;20.10;99.90
6244;DHT22;3155;49.940;8.450;2023-05-28T06:03:44;20.50;99.90
6244;DHT22;3155;49.940;8.450;2023-05-28T06:06:11;21.00;99.90
6244;DHT22;3155;49.940;8.450;2023-05-28T06:08:39;21.50;99.90
6244;DHT22;3155;49.940;8.450;2023-05-28T06:11:06;21.50;99.90
6244;DHT22;3155;49.940;8.450;2023-05-28T06:13:33;21.70;99.90
6244;DHT22;3155;49.940;8.450;2023-05-28T06:16:03;21.80;99.90
6244;DHT22;3155;49.940;8.450;2023-05-28T06:18:31;21.80;99.90
6244;DHT22;3155;49.940;8.450;2023-05-28T06:20:58;22.20;99.90
6244;DHT22;3155;49.940;8.450;2023-05-28T06:23:25;22.70;99.90
6244;DHT22;3155;49.940;8.450;2023-05-28T06:25:52;22.90;99.90
6244;DHT22;3155;49.940;8.450;2023-05-28T06:28:19;23.10;99.90
6244;DHT22;3155;49.940;8.450;2023-05-28T06:30:46;22.90;99.90
6244;DHT22;3155;49.940;8.450;2023-05-28T06:33:13;22.80;99.90
6244;DHT22;3155;49.940;8.450;2023-05-28T06:35:39;22.60;99.90
6244;DHT22;3155;49.940;8.450;2023-05-28T06:38:06;22.40;99.90
6244;DHT22;3155;49.940;8.450;2023-05-28T06:40:33;22.40;99.90
6244;DHT22;3155;49.940;8.450;2023-05-28T06:43:00;22.30;99.90
6244;DHT22;3155;49.940;8.450;2023-05-28T06:45:28;22.00;99.90
6244;DHT22;3155;49.940;8.450;2023-05-28T06:47:55;22.10;99.90
6244;DHT22;3155;49.940;8.450;2023-05-28T06:50:22;22.40;99.90
6244;DHT22;3155;49.940;8.450;2023-05-28T06:52:49;22.70;99.90
6244;DHT22;3155;49.940;8.450;2023-05-28T06:55:17;23.00;99.90
6244;DHT22;3155;49.940;8.450;2023-05-28T06:57:44;23.20;99.90
6244;DHT22;3155;49.940;8.450;2023-05-28T07:00:11;23.30;99.90
6244;DHT22;3155;49.940;8.450;2023-05-28T07:02:40;23.70;99.90
6244;DHT22;3155;49.940;8.450;2023-05-28T07:05:07;23.80;99.90
6244;DHT22;3155;49.940;8.450;2023-05-28T07:07:34;23.80;99.90
6244;DHT22;3155;49.940;8.450;2023-05-28T07:10:02;24.00;99.90
6244;DHT22;3155;49.940;8.450;2023-05-28T07:12:32;24.10;99.90
6244;DHT22;3155;49.940;8.450;2023-05-28T07:14:59;24.20;99.90
6244;DHT22;3155;49.940;8.450;2023-05-28T07:17:26;24.30;99.90
6244;DHT22;3155;49.940;8.450;2023-05-28T07:19:53;24.50;99.90
6244;DHT22;3155;49.940;8.450;2023-05-28T07:22:19;24.60;99.90
6244;DHT22;3155;49.940;8.450;2023-05-28T07:24:46;24.70;99.90
6244;DHT22;3155;49.940;8.450;2023-05-28T07:27:13;24.60;99.90
6244;DHT22;3155;49.940;8.450;2023-05-28T07:29:39;24.70;99.90
6244;DHT22;3155;49.940;8.450;2023-05-28T07:32:10;24.30;99.90
6244;DHT22;3155;49.940;8.450;2023-05-28T07:34:37;24.00;99.90
6244;DHT22;3155;49.940;8.450;2023-05-28T07:37:05;24.40;99.90
6244;DHT22;3155;49.940;8.450;2023-05-28T07:39:34;24.60;99.90
6244;DHT22;3155;49.940;8.450;2023-05-28T07:42:00;24.90;99.90
6244;DHT22;3155;49.940;8.450;2023-05-28T07:44:27;25.10;99.90
6244;DHT22;3155;49.940;8.450;2023-05-28T07:46:54;25.30;99.90
6244;DHT22;3155;49.940;8.450;2023-05-28T07:49:21;25.30;99.90
6244;DHT22;3155;49.940;8.450;2023-05-28T07:51:48;25.30;99.90
6244;DHT22;3155;49.940;8.450;2023-05-28T07:54:15;24.80;99.90
6244;DHT22;3155;49.940;8.450;2023-05-28T07:56:42;24.50;99.90
6244;DHT22;3155;49.940;8.450;2023-05-28T07:59:09;24.20;99.90
6244;DHT22;3155;49.940;8.450;2023-05-28T08:01:39;23.70;99.90
6244;DHT22;3155;49.940;8.450;2023-05-28T08:04:09;23.90;99.90
6244;DHT22;3155;49.940;8.450;2023-05-28T08:06:35;23.70;99.90
6244;DHT22;3155;49.940;8.450;2023-05-28T08:09:06;24.10;99.90
6244;DHT22;3155;49.940;8.450;2023-05-28T08:11:33;24.40;99.90
6244;DHT22;3155;49.940;8.450;2023-05-28T08:14:01;24.40;99.90
6244;DHT22;3155;49.940;8.450;2023-05-28T08:16:27;24.70;99.90
6244;DHT22;3155;49.940;8.450;2023-05-28T08:18:54;24.50;99.90
6244;DHT22;3155;49.940;8.450;2023-05-28T08:21:23;23.70;99.90
6244;DHT22;3155;49.940;8.450;2023-05-28T08:23:54;23.70;99.90
6244;DHT22;3155;49.940;8.450;2023-05-28T08:26:21;24.20;99.90
6244;DHT22;3155;49.940;8.450;2023-05-28T08:28:49;24.70;99.90
6244;DHT22;3155;49.940;8.450;2023-05-28T08:31:16;25.30;99.90
6244;DHT22;3155;49.940;8.450;2023-05-28T08:33:45;25.50;99.90
6244;DHT22;3155;49.940;8.450;2023-05-28T08:36:11;25.70;99.90
6244;DHT22;3155;49.940;8.450;2023-05-28T08:38:42;26.10;99.90
6244;DHT22;3155;49.940;8.450;2023-05-28T08:41:12;26.00;99.90
6244;DHT22;3155;49.940;8.450;2023-05-28T08:43:41;25.80;99.90
6244;DHT22;3155;49.940;8.450;2023-05-28T08:46:08;25.90;99.90
6244;DHT22;3155;49.940;8.450;2023-05-28T08:48:36;25.50;99.90
6244;DHT22;3155;49.940;8.450;2023-05-28T08:51:06;25.90;99.90
6244;DHT22;3155;49.940;8.450;2023-05-28T08:53:40;25.80;99.90
6244;DHT22;3155;49.940;8.450;2023-05-28T08:56:07;26.20;99.90
6244;DHT22;3155;49.940;8.450;2023-05-28T08:58:40;26.50;99.90
6244;DHT22;3155;49.940;8.450;2023-05-28T09:01:10;26.50;99.90
6244;DHT22;3155;49.940;8.450;2023-05-28T09:03:39;26.50;99.90
6244;DHT22;3155;49.940;8.450;2023-05-28T09:06:07;26.00;99.90
6244;DHT22;3155;49.940;8.450;2023-05-28T09:08:34;26.30;99.90
6244;DHT22;3155;49.940;8.450;2023-05-28T09:11:12;26.10;99.90
6244;DHT22;3155;49.940;8.450;2023-05-28T09:13:43;25.00;99.90
6244;DHT22;3155;49.940;8.450;2023-05-28T09:16:11;25.00;99.90
6244;DHT22;3155;49.940;8.450;2023-05-28T09:18:44;25.50;99.90
6244;DHT22;3155;49.940;8.450;2023-05-28T09:21:12;25.90;99.90
6244;DHT22;3155;49.940;8.450;2023-05-28T09:23:42;26.70;99.90
6244;DHT22;3155;49.940;8.450;2023-05-28T09:26:10;27.00;99.90
6244;DHT22;3155;49.940;8.450;2023-05-28T09:28:41;27.60;99.90
6244;DHT22;3155;49.940;8.450;2023-05-28T09:31:10;27.90;99.90
6244;DHT22;3155;49.940;8.450;2023-05-28T09:33:46;27.70;99.90
6244;DHT22;3155;49.940;8.450;2023-05-28T09:36:17;27.60;99.90
6244;DHT22;3155;49.940;8.450;2023-05-28T09:38:44;27.60;99.90
6244;DHT22;3155;49.940;8.450;2023-05-28T09:41:22;27.40;99.90
6244;DHT22;3155;49.940;8.450;2023-05-28T09:44:00;26.90;99.90
6244;DHT22;3155;49.940;8.450;2023-05-28T09:48:57;26.30;99.90
6244;DHT22;3155;49.940;8.450;2023-05-28T09:51:26;26.00;99.90
6244;DHT22;3155;49.940;8.450;2023-05-28T09:53:58;26.20;99.90
6244;DHT22;3155;49.940;8.450;2023-05-28T09:56:28;26.50;99.90
6244;DHT22;3155;49.940;8.450;2023-05-28T09:59:06;26.40;99.90
6244;DHT22;3155;49.940;8.450;2023-05-28T10:01:43;26.50;99.90
6244;DHT22;3155;49.940;8.450;2023-05-28T10:04:21;25.90;99.90
6244;DHT22;3155;49.940;8.450;2023-05-28T10:06:48;25.60;99.90
6244;DHT22;3155;49.940;8.450;2023-05-28T10:09:24;25.80;99.90
6244;DHT22;3155;49.940;8.450;2023-05-28T10:12:13;26.30;99.90
6244;DHT22;3155;49.940;8.450;2023-05-28T10:14:45;26.50;99.90
6244;DHT22;3155;49.940;8.450;2023-05-28T10:17:13;26.60;99.90
6244;DHT22;3155;49.940;8.450;2023-05-28T10:19:45;27.10;99.90
6244;DHT22;3155;49.940;8.450;2023-05-28T10:22:16;27.40;99.90
6244;DHT22;3155;49.940;8.450;2023-05-28T10:24:43;27.80;99.90
6244;DHT22;3155;49.940;8.450;2023-05-28T10:27:14;27.20;99.90
6244;DHT22;3155;49.940;8.450;2023-05-28T10:29:43;27.60;99.90
6244;DHT22;3155;49.940;8.450;2023-05-28T10:32:16;27.10;99.90
6244;DHT22;3155;49.940;8.450;2023-05-28T10:34:44;27.30;99.90
6244;DHT22;3155;49.940;8.450;2023-05-28T10:37:22;27.50;99.90
6244;DHT22;3155;49.940;8.450;2023-05-28T10:39:49;27.60;99.90
6244;DHT22;3155;49.940;8.450;2023-05-28T10:42:18;27.60;99.90
6244;DHT22;3155;49.940;8.450;2023-05-28T10:47:41;28.40;99.90
6244;DHT22;3155;49.940;8.450;2023-05-28T10:53:08;28.70;99.90
6244;DHT22;3155;49.940;8.450;2023-05-28T10:55:51;28.70;99.90
6244;DHT22;3155;49.940;8.450;2023-05-28T10:58:35;28.70;99.90
6244;DHT22;3155;49.940;8.450;2023-05-28T11:01:18;27.90;99.90
6244;DHT22;3155;49.940;8.450;2023-05-28T11:03:54;27.80;99.90
6244;DHT22;3155;49.940;8.450;2023-05-28T11:06:24;27.70;99.90
6244;DHT22;3155;49.940;8.450;2023-05-28T11:09:00;26.90;99.90
6244;DHT22;3155;49.940;8.450;2023-05-28T11:11:29;26.80;99.90
6244;DHT22;3155;49.940;8.450;2023-05-28T11:14:01;27.00;99.90
6244;DHT22;3155;49.940;8.450;2023-05-28T11:16:31;27.20;99.90
6244;DHT22;3155;49.940;8.450;2023-05-28T11:19:07;27.70;99.90
6244;DHT22;3155;49.940;8.450;2023-05-28T11:21:54;28.00;99.90
6244;DHT22;3155;49.940;8.450;2023-05-28T11:24:25;28.30;99.90
6244;DHT22;3155;49.940;8.450;2023-05-28T11:26:52;28.40;99.90
6244;DHT22;3155;49.940;8.450;2023-05-28T11:29:23;28.40;99.90
6244;DHT22;3155;49.940;8.450;2023-05-28T11:31:50;28.20;99.90
6244;DHT22;3155;49.940;8.450;2023-05-28T11:34:19;28.20;99.90
6244;DHT22;3155;49.940;8.450;2023-05-28T11:36:46;28.50;99.90
6244;DHT22;3155;49.940;8.450;2023-05-28T11:39:13;28.50;99.90
6244;DHT22;3155;49.940;8.450;2023-05-28T11:41:43;28.60;99.90
6244;DHT22;3155;49.940;8.450;2023-05-28T11:44:20;28.90;99.90
6244;DHT22;3155;49.940;8.450;2023-05-28T11:46:57;29.00;99.90
6244;DHT22;3155;49.940;8.450;2023-05-28T11:49:36;29.30;99.90
6244;DHT22;3155;49.940;8.450;2023-05-28T11:52:10;29.30;99.90
6244;DHT22;3155;49.940;8.450;2023-05-28T11:54:48;29.10;99.90
6244;DHT22;3155;49.940;8.450;2023-05-28T11:57:36;29.00;99.90
6244;DHT22;3155;49.940;8.450;2023-05-28T12:00:11;29.10;99.90
6244;DHT22;3155;49.940;8.450;2023-05-28T12:02:49;29.00;99.90
6244;DHT22;3155;49.940;8.450;2023-05-28T12:05:17;29.30;99.90
6244;DHT22;3155;49.940;8.450;2023-05-28T12:07:50;29.20;99.90
6244;DHT22;3155;49.940;8.450;2023-05-28T12:10:21;28.60;99.90
6244;DHT22;3155;49.940;8.450;2023-05-28T12:12:56;28.80;99.90
6244;DHT22;3155;49.940;8.450;2023-05-28T12:15:24;28.50;99.90
6244;DHT22;3155;49.940;8.450;2023-05-28T12:17:58;28.40;99.90
6244;DHT22;3155;49.940;8.450;2023-05-28T12:20:37;28.30;99.90
6244;DHT22;3155;49.940;8.450;2023-05-28T12:23:11;28.10;99.90
6244;DHT22;3155;49.940;8.450;2023-05-28T12:28:11;28.30;99.90
6244;DHT22;3155;49.940;8.450;2023-05-28T12:30:39;28.20;99.90
6244;DHT22;3155;49.940;8.450;2023-05-28T12:33:09;28.30;99.90
6244;DHT22;3155;49.940;8.450;2023-05-28T12:35:37;27.90;99.90
6244;DHT22;3155;49.940;8.450;2023-05-28T12:38:04;28.30;99.90
6244;DHT22;3155;49.940;8.450;2023-05-28T12:40:33;28.30;99.90
6244;DHT22;3155;49.940;8.450;2023-05-28T12:43:00;28.50;99.90
6244;DHT22;3155;49.940;8.450;2023-05-28T12:45:27;28.60;99.90
6244;DHT22;3155;49.940;8.450;2023-05-28T12:47:54;28.50;99.90
6244;DHT22;3155;49.940;8.450;2023-05-28T12:50:22;28.70;99.90
6244;DHT22;3155;49.940;8.450;2023-05-28T12:52:50;28.50;99.90
6244;DHT22;3155;49.940;8.450;2023-05-28T12:55:21;28.20;99.90
6244;DHT22;3155;49.940;8.450;2023-05-28T12:57:51;28.20;99.90
6244;DHT22;3155;49.940;8.450;2023-05-28T13:00:20;28.40;99.90
6244;DHT22;3155;49.940;8.450;2023-05-28T13:02:47;28.80;99.90
6244;DHT22;3155;49.940;8.450;2023-05-28T13:05:13;28.90;99.90
6244;DHT22;3155;49.940;8.450;2023-05-28T13:07:40;28.80;99.90
6244;DHT22;3155;49.940;8.450;2023-05-28T13:10:08;28.70;99.90
6244;DHT22;3155;49.940;8.450;2023-05-28T13:12:40;28.70;99.90
6244;DHT22;3155;49.940;8.450;2023-05-28T13:15:07;28.70;99.90
6244;DHT22;3155;49.940;8.450;2023-05-28T13:17:34;28.80;99.90
6244;DHT22;3155;49.940;8.450;2023-05-28T13:20:01;29.40;99.90
6244;DHT22;3155;49.940;8.450;2023-05-28T13:22:36;30.00;99.90
6244;DHT22;3155;49.940;8.450;2023-05-28T13:25:04;30.50;99.90
6244;DHT22;3155;49.940;8.450;2023-05-28T13:27:36;30.20;99.90
6244;DHT22;3155;49.940;8.450;2023-05-28T13:30:03;30.40;99.90
6244;DHT22;3155;49.940;8.450;2023-05-28T13:32:34;30.90;99.90
6244;DHT22;3155;49.940;8.450;2023-05-28T13:35:05;31.40;99.90
6244;DHT22;3155;49.940;8.450;2023-05-28T13:37:56;31.40;99.90
6244;DHT22;3155;49.940;8.450;2023-05-28T13:40:26;31.90;99.90
6244;DHT22;3155;49.940;8.450;2023-05-28T13:42:54;31.90;99.90
6244;DHT22;3155;49.940;8.450;2023-05-28T13:45:21;31.70;99.90
6244;DHT22;3155;49.940;8.450;2023-05-28T13:47:48;31.10;99.90
6244;DHT22;3155;49.940;8.450;2023-05-28T13:50:18;31.50;99.90
6244;DHT22;3155;49.940;8.450;2023-05-28T13:52:45;29.90;99.90
6244;DHT22;3155;49.940;8.450;2023-05-28T13:55:15;29.10;99.90
6244;DHT22;3155;49.940;8.450;2023-05-28T13:57:42;29.20;99.90
6244;DHT22;3155;49.940;8.450;2023-05-28T14:00:10;29.50;99.90
6244;DHT22;3155;49.940;8.450;2023-05-28T14:02:46;30.30;99.90
6244;DHT22;3155;49.940;8.450;2023-05-28T14:05:15;30.70;99.90
6244;DHT22;3155;49.940;8.450;2023-05-28T14:07:51;31.30;99.90
6244;DHT22;3155;49.940;8.450;2023-05-28T14:10:18;32.10;99.90
6244;DHT22;3155;49.940;8.450;2023-05-28T14:12:49;32.80;99.90
6244;DHT22;3155;49.940;8.450;2023-05-28T14:15:16;32.50;99.90
6244;DHT22;3155;49.940;8.450;2023-05-28T14:17:49;32.10;99.90
6244;DHT22;3155;49.940;8.450;2023-05-28T14:20:18;32.30;99.90
6244;DHT22;3155;49.940;8.450;2023-05-28T14:22:45;32.70;99.90
6244;DHT22;3155;49.940;8.450;2023-05-28T14:25:18;32.80;99.90
6244;DHT22;3155;49.940;8.450;2023-05-28T14:27:46;33.20;99.90
6244;DHT22;3155;49.940;8.450;2023-05-28T14:30:32;33.50;99.90
6244;DHT22;3155;49.940;8.450;2023-05-28T14:32:58;33.50;99.90
6244;DHT22;3155;49.940;8.450;2023-05-28T14:35:29;33.60;99.90
6244;DHT22;3155;49.940;8.450;2023-05-28T14:37:56;33.10;99.90
6244;DHT22;3155;49.940;8.450;2023-05-28T14:40:23;31.80;99.90
6244;DHT22;3155;49.940;8.450;2023-05-28T14:42:50;32.10;99.90
6244;DHT22;3155;49.940;8.450;2023-05-28T14:45:17;32.10;99.90
6244;DHT22;3155;49.940;8.450;2023-05-28T14:47:45;33.00;99.90
6244;DHT22;3155;49.940;8.450;2023-05-28T14:50:12;34.00;99.90
6244;DHT22;3155;49.940;8.450;2023-05-28T14:52:46;34.70;99.90
6244;DHT22;3155;49.940;8.450;2023-05-28T14:55:13;34.80;99.90
6244;DHT22;3155;49.940;8.450;2023-05-28T14:57:45;34.50;99.90
6244;DHT22;3155;49.940;8.450;2023-05-28T15:00:21;33.80;99.90
6244;DHT22;3155;49.940;8.450;2023-05-28T15:02:48;33.30;99.90
6244;DHT22;3155;49.940;8.450;2023-05-28T15:05:15;32.90;99.90
6244;DHT22;3155;49.940;8.450;2023-05-28T15:07:41;33.00;99.90
6244;DHT22;3155;49.940;8.450;2023-05-28T15:10:08;33.00;99.90
6244;DHT22;3155;49.940;8.450;2023-05-28T15:12:35;32.50;99.90
6244;DHT22;3155;49.940;8.450;2023-05-28T15:15:02;32.10;99.90
6244;DHT22;3155;49.940;8.450;2023-05-28T15:17:30;32.90;99.90
6244;DHT22;3155;49.940;8.450;2023-05-28T15:19:57;33.50;99.90
6244;DHT22;3155;49.940;8.450;2023-05-28T15:22:24;34.00;99.90
6244;DHT22;3155;49.940;8.450;2023-05-28T15:24:51;34.50;99.90
6244;DHT22;3155;49.940;8.450;2023-05-28T15:27:18;34.50;99.90
6244;DHT22;3155;49.940;8.450;2023-05-28T15:29:45;34.20;99.90
6244;DHT22;3155;49.940;8.450;2023-05-28T15:32:12;34.10;99.90
6244;DHT22;3155;49.940;8.450;2023-05-28T15:34:39;34.20;99.90
6244;DHT22;3155;49.940;8.450;2023-05-28T15:37:07;34.50;99.90
6244;DHT22;3155;49.940;8.450;2023-05-28T15:39:39;34.80;99.90
6244;DHT22;3155;49.940;8.450;2023-05-28T15:42:06;34.90;99.90
6244;DHT22;3155;49.940;8.450;2023-05-28T15:44:37;34.90;99.90
6244;DHT22;3155;49.940;8.450;2023-05-28T15:47:04;35.40;99.90
6244;DHT22;3155;49.940;8.450;2023-05-28T15:49:35;35.20;99.90
6244;DHT22;3155;49.940;8.450;2023-05-28T15:52:02;34.40;99.90
6244;DHT22;3155;49.940;8.450;2023-05-28T15:54:32;33.90;99.90
6244;DHT22;3155;49.940;8.450;2023-05-28T15:57:02;32.90;99.90
6244;DHT22;3155;49.940;8.450;2023-05-28T15:59:29;31.60;99.90
6244;DHT22;3155;49.940;8.450;2023-05-28T16:01:56;30.60;99.90
6244;DHT22;3155;49.940;8.450;2023-05-28T16:04:28;29.40;99.90
6244;DHT22;3155;49.940;8.450;2023-05-28T16:06:59;28.50;99.90
6244;DHT22;3155;49.940;8.450;2023-05-28T16:09:26;27.90;99.90
6244;DHT22;3155;49.940;8.450;2023-05-28T16:12:00;27.30;99.90
6244;DHT22;3155;49.940;8.450;2023-05-28T16:14:35;27.00;99.90
6244;DHT22;3155;49.940;8.450;2023-05-28T16:17:06;26.70;99.90
6244;DHT22;3155;49.940;8.450;2023-05-28T16:19:33;26.50;99.90
6244;DHT22;3155;49.940;8.450;2023-05-28T16:22:05;26.20;99.90
6244;DHT22;3155;49.940;8.450;2023-05-28T16:24:32;26.00;99.90
6244;DHT22;3155;49.940;8.450;2023-05-28T16:27:02;25.90;99.90
6244;DHT22;3155;49.940;8.450;2023-05-28T16:29:29;25.90;99.90